Time;durP1;ratioP1;P1;durP2;ratioP2;P2;SDS_P1;SDS_P2;PMS_P1;PMS_P2;Temp;Humidity;BMP_temperature;BMP_pressure;BME280_temperature;BME280_humidity;BME280_pressure;Samples;Min_cycle;Max_cycle;Signal;HPM_P1;HPM_P2
2022/07/27 00:02:25;;;;;;;;;;;18.40;99.90;;;;;;5120285;28;19920;-70
2022/07/27 00:04:53;;;;;;;;;;;18.40;99.90;;;;;;5114641;28;19966;-71
2022/07/27 00:07:20;;;;;;;;;;;18.40;99.90;;;;;;5107035;28;19920;-71
2022/07/27 00:09:47;;;;;;;;;;;18.40;99.90;;;;;;5107003;28;19951;-70
2022/07/27 00:12:13;;;;;;;;;;;18.40;99.90;;;;;;5124661;28;19926;-71
2022/07/27 00:14:40;;;;;;;;;;;18.40;99.90;;;;;;5127031;28;19951;-70
2022/07/27 00:17:07;;;;;;;;;;;18.40;99.90;;;;;;5127370;28;19958;-70
2022/07/27 00:19:33;;;;;;;;;;;18.40;99.90;;;;;;5127317;28;19951;-70
2022/07/27 00:22:01;;;;;;;;;;;18.40;99.90;;;;;;5127194;28;19920;-71
2022/07/27 00:24:28;;;;;;;;;;;18.40;99.90;;;;;;5126873;28;19959;-71
2022/07/27 00:26:55;;;;;;;;;;;18.30;99.90;;;;;;5127036;28;19991;-71
2022/07/27 00:29:21;;;;;;;;;;;18.30;99.90;;;;;;5127248;28;19987;-70
2022/07/27 00:31:48;;;;;;;;;;;18.30;99.90;;;;;;5126646;28;19920;-71
2022/07/27 00:34:14;;;;;;;;;;;18.30;99.90;;;;;;5126682;28;19994;-71
2022/07/27 00:36:41;;;;;;;;;;;18.20;99.90;;;;;;5126936;28;19951;-71
2022/07/27 00:39:09;;;;;;;;;;;18.30;99.90;;;;;;5126660;28;19920;-70
2022/07/27 00:41:36;;;;;;;;;;;18.20;99.90;;;;;;5119255;28;20119;-70
2022/07/27 00:44:05;;;;;;;;;;;18.20;99.90;;;;;;5126539;28;19920;-71
2022/07/27 00:46:32;;;;;;;;;;;18.30;99.90;;;;;;5126609;28;20115;-70
2022/07/27 00:48:59;;;;;;;;;;;18.20;99.90;;;;;;5126885;28;19955;-70
2022/07/27 00:51:25;;;;;;;;;;;18.20;99.90;;;;;;5126536;28;19952;-70
2022/07/27 00:53:53;;;;;;;;;;;18.20;99.90;;;;;;5125863;28;19986;-70
2022/07/27 00:56:21;;;;;;;;;;;18.20;99.90;;;;;;5126684;28;19920;-71
2022/07/27 00:58:50;;;;;;;;;;;18.30;99.90;;;;;;5126456;28;20147;-69
2022/07/27 01:01:17;;;;;;;;;;;18.30;99.90;;;;;;5126306;28;19948;-71
2022/07/27 01:03:44;;;;;;;;;;;18.30;99.90;;;;;;5116908;28;19983;-69
2022/07/27 01:06:12;;;;;;;;;;;18.30;99.90;;;;;;5125501;28;19962;-71
2022/07/27 01:08:38;;;;;;;;;;;18.20;99.90;;;;;;5126272;28;19920;-70
2022/07/27 01:11:05;;;;;;;;;;;18.20;99.90;;;;;;5125993;28;19982;-70
2022/07/27 01:13:33;;;;;;;;;;;18.20;99.90;;;;;;5126210;28;19927;-71
2022/07/27 01:16:00;;;;;;;;;;;18.20;99.90;;;;;;5126254;28;19947;-71
2022/07/27 01:18:28;;;;;;;;;;;18.20;99.90;;;;;;5126258;28;19919;-71
2022/07/27 01:20:55;;;;;;;;;;;18.20;99.90;;;;;;5125310;28;20152;-71
2022/07/27 01:23:23;;;;;;;;;;;18.20;99.90;;;;;;5125769;28;19926;-70
2022/07/27 01:25:50;;;;;;;;;;;18.20;99.90;;;;;;5125984;28;20187;-70
2022/07/27 01:28:17;;;;;;;;;;;18.20;99.90;;;;;;5125812;28;19950;-70
2022/07/27 01:30:44;;;;;;;;;;;18.20;99.90;;;;;;5125674;28;20187;-71
2022/07/27 01:33:10;;;;;;;;;;;18.20;99.90;;;;;;5125507;28;19962;-71
2022/07/27 01:35:37;;;;;;;;;;;18.10;99.90;;;;;;5125479;28;20123;-70
2022/07/27 01:38:04;;;;;;;;;;;18.10;99.90;;;;;;5125479;28;19958;-70
2022/07/27 01:40:32;;;;;;;;;;;18.10;99.90;;;;;;5125559;28;19983;-69
2022/07/27 01:42:59;;;;;;;;;;;18.00;99.90;;;;;;5125152;28;19979;-70
2022/07/27 01:45:26;;;;;;;;;;;18.00;99.90;;;;;;5125694;28;19920;-71
2022/07/27 01:47:52;;;;;;;;;;;18.00;99.90;;;;;;5125547;28;19951;-70
2022/07/27 01:50:19;;;;;;;;;;;18.00;99.90;;;;;;5125114;28;19920;-70
2022/07/27 01:52:46;;;;;;;;;;;18.00;99.90;;;;;;5125485;28;19920;-70
2022/07/27 01:55:13;;;;;;;;;;;18.00;99.90;;;;;;5125529;28;19919;-71
2022/07/27 01:57:40;;;;;;;;;;;18.00;99.90;;;;;;5125522;28;19982;-71
2022/07/27 02:00:09;;;;;;;;;;;18.00;99.90;;;;;;5125062;28;20100;-71
2022/07/27 02:02:36;;;;;;;;;;;17.90;99.90;;;;;;5124890;28;19920;-70
2022/07/27 02:05:03;;;;;;;;;;;17.90;99.90;;;;;;5115558;28;19959;-70
2022/07/27 02:07:30;;;;;;;;;;;17.90;99.90;;;;;;5125515;28;19951;-70
2022/07/27 02:09:57;;;;;;;;;;;17.90;99.90;;;;;;5124814;28;19958;-71
2022/07/27 02:12:34;;;;;;;;;;;17.90;99.90;;;;;;5125059;28;19982;-69
2022/07/27 02:15:03;;;;;;;;;;;17.80;99.90;;;;;;5124918;28;19916;-69
2022/07/27 02:17:29;;;;;;;;;;;17.80;99.90;;;;;;5124884;28;20219;-69
2022/07/27 02:19:56;;;;;;;;;;;17.80;99.90;;;;;;5123649;28;19947;-69
2022/07/27 02:22:23;;;;;;;;;;;17.70;99.90;;;;;;5124737;28;19927;-69
2022/07/27 02:24:49;;;;;;;;;;;17.70;99.90;;;;;;5124620;28;19986;-69
2022/07/27 02:27:16;;;;;;;;;;;17.70;99.90;;;;;;5124705;28;20222;-69
2022/07/27 02:29:42;;;;;;;;;;;17.70;99.90;;;;;;5124647;28;19935;-69
2022/07/27 02:32:10;;;;;;;;;;;17.70;99.90;;;;;;5124611;28;19919;-69
2022/07/27 02:34:37;;;;;;;;;;;17.60;99.90;;;;;;5124328;28;19951;-69
2022/07/27 02:37:04;;;;;;;;;;;17.60;99.90;;;;;;5124631;28;19927;-69
2022/07/27 02:39:30;;;;;;;;;;;17.60;99.90;;;;;;5124395;28;19955;-69
2022/07/27 02:41:57;;;;;;;;;;;17.60;99.90;;;;;;5124294;28;19954;-69
2022/07/27 02:44:24;;;;;;;;;;;17.60;99.90;;;;;;5123949;28;19962;-69
2022/07/27 02:46:50;;;;;;;;;;;17.50;99.90;;;;;;5124586;28;19959;-69
2022/07/27 02:49:18;;;;;;;;;;;17.50;99.90;;;;;;5124255;28;19926;-69
2022/07/27 02:51:45;;;;;;;;;;;17.50;99.90;;;;;;5124187;28;19920;-71
2022/07/27 02:54:12;;;;;;;;;;;17.40;99.90;;;;;;5124042;28;19919;-69
2022/07/27 02:56:38;;;;;;;;;;;17.40;99.90;;;;;;5124237;28;19987;-69
2022/07/27 02:59:05;;;;;;;;;;;17.40;99.90;;;;;;5124069;28;19955;-69
2022/07/27 03:01:31;;;;;;;;;;;17.40;99.90;;;;;;5123873;28;19958;-69
2022/07/27 03:03:58;;;;;;;;;;;17.40;99.90;;;;;;5115820;28;19951;-69
2022/07/27 03:06:26;;;;;;;;;;;17.30;99.90;;;;;;5122875;28;19966;-69
2022/07/27 03:08:53;;;;;;;;;;;17.20;99.90;;;;;;5124145;28;19920;-69
2022/07/27 03:11:19;;;;;;;;;;;17.20;99.90;;;;;;5123491;28;19943;-69
2022/07/27 03:13:46;;;;;;;;;;;17.20;99.90;;;;;;5123714;28;19927;-69
2022/07/27 03:16:13;;;;;;;;;;;17.20;99.90;;;;;;5123876;28;19919;-69
2022/07/27 03:18:39;;;;;;;;;;;17.10;99.90;;;;;;5123727;28;19961;-69
2022/07/27 03:21:06;;;;;;;;;;;17.00;99.90;;;;;;5123641;28;19927;-69
2022/07/27 03:23:34;;;;;;;;;;;17.00;99.90;;;;;;5123300;28;20219;-69
2022/07/27 03:26:01;;;;;;;;;;;17.00;99.90;;;;;;5123712;28;19986;-69
2022/07/27 03:28:28;;;;;;;;;;;16.90;99.90;;;;;;5123876;28;20010;-69
2022/07/27 03:30:54;;;;;;;;;;;16.90;99.90;;;;;;5118414;28;19978;-69
2022/07/27 03:33:21;;;;;;;;;;;16.90;99.90;;;;;;5116283;28;20259;-69
2022/07/27 03:35:48;;;;;;;;;;;16.80;99.90;;;;;;5114956;28;19920;-69
2022/07/27 03:38:14;;;;;;;;;;;16.80;99.90;;;;;;5122623;28;19926;-69
2022/07/27 03:40:44;;;;;;;;;;;16.70;99.90;;;;;;5116032;28;19920;-69
2022/07/27 03:43:10;;;;;;;;;;;16.70;99.90;;;;;;5123254;28;19923;-69
2022/07/27 03:45:37;;;;;;;;;;;16.60;99.90;;;;;;5123870;28;19958;-69
2022/07/27 03:48:04;;;;;;;;;;;16.70;99.90;;;;;;5123597;28;19964;-69
2022/07/27 03:50:30;;;;;;;;;;;16.60;99.90;;;;;;5114543;28;19955;-69
2022/07/27 03:52:57;;;;;;;;;;;16.60;99.90;;;;;;5123303;28;19955;-69
2022/07/27 03:55:24;;;;;;;;;;;16.60;99.90;;;;;;5123327;28;19991;-69
2022/07/27 03:57:52;;;;;;;;;;;16.50;99.90;;;;;;5123248;28;19926;-69
2022/07/27 04:00:19;;;;;;;;;;;16.40;99.90;;;;;;5123160;28;19923;-69
2022/07/27 04:02:46;;;;;;;;;;;16.40;99.90;;;;;;5122971;28;19987;-69
2022/07/27 04:05:12;;;;;;;;;;;16.30;99.90;;;;;;5114114;28;19927;-69
2022/07/27 04:07:39;;;;;;;;;;;16.30;99.90;;;;;;5123427;28;19958;-69
2022/07/27 04:10:06;;;;;;;;;;;16.20;99.90;;;;;;5122576;28;19959;-69
2022/07/27 04:12:35;;;;;;;;;;;16.20;99.90;;;;;;5123258;28;19970;-69
2022/07/27 04:15:03;;;;;;;;;;;16.20;99.90;;;;;;5123490;28;20168;-69
2022/07/27 04:17:30;;;;;;;;;;;16.20;99.90;;;;;;5123452;28;19919;-69
2022/07/27 04:19:57;;;;;;;;;;;16.10;99.90;;;;;;5123068;28;20033;-69
2022/07/27 04:22:23;;;;;;;;;;;16.20;99.90;;;;;;5122901;28;19954;-69
2022/07/27 04:24:50;;;;;;;;;;;16.20;99.90;;;;;;5123173;28;19947;-69
2022/07/27 04:27:16;;;;;;;;;;;16.20;99.90;;;;;;5123489;28;19994;-69
2022/07/27 04:29:43;;;;;;;;;;;16.20;99.90;;;;;;5123004;28;19927;-69
2022/07/27 04:32:11;;;;;;;;;;;16.30;99.90;;;;;;5123060;28;19927;-69
2022/07/27 04:34:38;;;;;;;;;;;16.30;99.90;;;;;;5123013;28;20179;-69
2022/07/27 04:37:04;;;;;;;;;;;16.40;99.90;;;;;;5122935;28;20179;-69
2022/07/27 04:39:31;;;;;;;;;;;16.40;99.90;;;;;;5123062;28;19981;-69
2022/07/27 04:41:58;;;;;;;;;;;16.50;99.90;;;;;;5123858;28;20122;-69
2022/07/27 04:44:24;;;;;;;;;;;16.50;99.90;;;;;;5123975;28;20298;-69
2022/07/27 04:46:51;;;;;;;;;;;16.50;99.90;;;;;;5121292;28;20108;-69
2022/07/27 04:49:19;;;;;;;;;;;16.60;99.90;;;;;;5126530;28;20231;-69
2022/07/27 04:51:46;;;;;;;;;;;16.60;99.90;;;;;;5126784;28;20007;-69
2022/07/27 04:54:12;;;;;;;;;;;16.60;99.90;;;;;;5117990;28;19987;-69
2022/07/27 04:56:39;;;;;;;;;;;16.50;99.90;;;;;;5106299;28;19954;-68
2022/07/27 04:59:06;;;;;;;;;;;16.50;99.90;;;;;;5117870;28;19951;-69
2022/07/27 05:01:32;;;;;;;;;;;16.60;99.90;;;;;;5126403;28;19969;-69
2022/07/27 05:03:59;;;;;;;;;;;16.60;99.90;;;;;;5117770;28;19983;-69
2022/07/27 05:06:27;;;;;;;;;;;16.60;99.90;;;;;;5125140;28;20014;-69
2022/07/27 05:08:54;;;;;;;;;;;16.60;99.90;;;;;;5126628;28;19958;-69
2022/07/27 05:11:20;;;;;;;;;;;16.70;99.90;;;;;;5126125;28;19951;-69
2022/07/27 05:13:47;;;;;;;;;;;16.70;99.90;;;;;;5126207;28;19951;-69
2022/07/27 05:16:14;;;;;;;;;;;16.80;99.90;;;;;;5126008;28;19927;-69
2022/07/27 05:18:40;;;;;;;;;;;16.80;99.90;;;;;;5125937;28;19977;-69
2022/07/27 05:21:08;;;;;;;;;;;16.80;99.90;;;;;;5126175;28;19920;-69
2022/07/27 05:23:36;;;;;;;;;;;16.90;99.90;;;;;;5125870;28;19920;-69
2022/07/27 05:26:03;;;;;;;;;;;16.90;99.90;;;;;;5125881;28;20197;-67
2022/07/27 05:28:30;;;;;;;;;;;16.90;99.90;;;;;;5125697;28;19947;-67
2022/07/27 05:30:56;;;;;;;;;;;17.00;99.90;;;;;;5125685;28;19982;-69
2022/07/27 05:33:24;;;;;;;;;;;17.00;99.90;;;;;;5125375;28;20282;-69
2022/07/27 05:35:50;;;;;;;;;;;17.10;99.90;;;;;;5125734;28;20149;-69
2022/07/27 05:38:17;;;;;;;;;;;17.10;99.90;;;;;;5125347;28;19982;-69
2022/07/27 05:40:45;;;;;;;;;;;17.10;99.90;;;;;;5125870;28;20100;-69
2022/07/27 05:43:12;;;;;;;;;;;17.10;99.90;;;;;;5123824;28;19954;-69
2022/07/27 05:45:38;;;;;;;;;;;17.20;99.90;;;;;;5125337;28;19919;-69
2022/07/27 05:48:05;;;;;;;;;;;17.20;99.90;;;;;;5125839;28;20160;-69
2022/07/27 05:50:32;;;;;;;;;;;17.30;99.90;;;;;;5125393;28;19951;-67
2022/07/27 05:52:59;;;;;;;;;;;17.30;99.90;;;;;;5124133;28;19926;-67
2022/07/27 05:55:26;;;;;;;;;;;17.40;99.90;;;;;;5125122;28;19920;-69
2022/07/27 05:57:54;;;;;;;;;;;17.40;99.90;;;;;;5125568;28;19919;-69
2022/07/27 06:00:21;;;;;;;;;;;17.40;99.90;;;;;;5125132;28;19920;-69
2022/07/27 06:02:48;;;;;;;;;;;17.50;99.90;;;;;;5124946;28;19920;-68
2022/07/27 06:05:14;;;;;;;;;;;17.50;99.90;;;;;;5117166;28;19987;-68
2022/07/27 06:07:58;;;;;;;;;;;17.60;99.90;;;;;;5125833;28;19955;-68
2022/07/27 06:10:25;;;;;;;;;;;17.60;99.90;;;;;;5125407;28;20066;-68
2022/07/27 06:12:51;;;;;;;;;;;17.70;99.90;;;;;;5124418;28;19952;-72
2022/07/27 06:15:19;;;;;;;;;;;17.70;99.90;;;;;;5125248;28;19955;-67
2022/07/27 06:17:48;;;;;;;;;;;17.80;99.90;;;;;;5124056;28;20126;-68
2022/07/27 06:20:14;;;;;;;;;;;17.90;99.90;;;;;;5124413;28;20230;-69
2022/07/27 06:22:45;;;;;;;;;;;17.90;99.90;;;;;;5124880;28;20209;-69
2022/07/27 06:25:12;;;;;;;;;;;18.00;99.90;;;;;;5124643;28;19924;-69
2022/07/27 06:27:38;;;;;;;;;;;18.00;99.90;;;;;;5124395;28;20000;-69
2022/07/27 06:30:05;;;;;;;;;;;18.00;99.90;;;;;;5124487;28;19923;-69
2022/07/27 06:32:33;;;;;;;;;;;18.00;99.90;;;;;;5108725;28;19978;-69
2022/07/27 06:35:05;;;;;;;;;;;18.10;99.90;;;;;;5103808;28;19983;-68
2022/07/27 06:37:31;;;;;;;;;;;18.20;99.90;;;;;;5107586;28;19934;-68
2022/07/27 06:39:59;;;;;;;;;;;18.20;99.90;;;;;;5125220;28;19919;-69
2022/07/27 06:42:26;;;;;;;;;;;18.30;99.90;;;;;;5125090;28;19920;-69
2022/07/27 06:44:54;;;;;;;;;;;18.30;99.90;;;;;;5124748;28;19920;-68
2022/07/27 06:47:21;;;;;;;;;;;18.30;99.90;;;;;;5124845;28;19995;-69
2022/07/27 06:49:49;;;;;;;;;;;18.40;99.90;;;;;;5124676;28;19920;-69
2022/07/27 06:52:15;;;;;;;;;;;18.60;99.90;;;;;;5124992;28;19987;-68
2022/07/27 06:54:42;;;;;;;;;;;18.50;99.90;;;;;;5124272;28;20263;-69
2022/07/27 06:57:09;;;;;;;;;;;18.60;99.90;;;;;;5124655;28;19991;-69
2022/07/27 06:59:36;;;;;;;;;;;18.60;99.90;;;;;;5125014;28;19927;-68
2022/07/27 07:02:02;;;;;;;;;;;18.60;99.90;;;;;;5124674;28;19982;-69
2022/07/27 07:04:29;;;;;;;;;;;18.70;99.90;;;;;;5115753;28;19927;-69
2022/07/27 07:06:59;;;;;;;;;;;18.70;99.90;;;;;;5104357;28;19983;-69
2022/07/27 07:09:26;;;;;;;;;;;18.80;99.90;;;;;;5104452;28;20111;-68
2022/07/27 07:11:53;;;;;;;;;;;18.90;99.90;;;;;;5103864;28;19942;-69
2022/07/27 07:14:19;;;;;;;;;;;18.90;99.90;;;;;;5104005;28;19943;-69
2022/07/27 07:16:46;;;;;;;;;;;19.00;99.90;;;;;;5103912;28;19955;-69
2022/07/27 07:19:12;;;;;;;;;;;19.10;99.90;;;;;;5104084;28;19920;-68
2022/07/27 07:21:39;;;;;;;;;;;19.10;99.90;;;;;;5109227;28;20174;-68
2022/07/27 07:24:07;;;;;;;;;;;19.10;99.90;;;;;;5124168;28;19927;-68
2022/07/27 07:26:35;;;;;;;;;;;19.20;99.90;;;;;;5124409;28;19986;-69
2022/07/27 07:29:01;;;;;;;;;;;19.30;99.90;;;;;;5124150;28;19924;-69
2022/07/27 07:31:28;;;;;;;;;;;19.40;99.90;;;;;;5124273;28;19951;-69
2022/07/27 07:33:55;;;;;;;;;;;19.40;99.90;;;;;;5124238;28;19951;-68
2022/07/27 07:36:21;;;;;;;;;;;19.60;99.90;;;;;;5124245;28;19919;-69
2022/07/27 07:38:48;;;;;;;;;;;19.70;99.90;;;;;;5124343;28;19947;-69
2022/07/27 07:41:16;;;;;;;;;;;19.80;99.90;;;;;;5124158;28;19919;-68
2022/07/27 07:43:43;;;;;;;;;;;19.90;99.90;;;;;;5123708;28;20174;-68
2022/07/27 07:46:09;;;;;;;;;;;20.10;99.90;;;;;;5123883;28;20207;-68
2022/07/27 07:48:38;;;;;;;;;;;20.20;99.90;;;;;;5124160;28;20111;-68
2022/07/27 07:51:04;;;;;;;;;;;20.30;99.90;;;;;;5123990;28;19924;-69
2022/07/27 07:53:31;;;;;;;;;;;20.40;99.90;;;;;;5103446;28;19928;-68
2022/07/27 07:55:58;;;;;;;;;;;20.40;99.90;;;;;;5116762;28;19983;-69
2022/07/27 07:58:27;;;;;;;;;;;20.50;99.90;;;;;;5123986;28;19920;-69
2022/07/27 08:00:53;;;;;;;;;;;20.50;99.90;;;;;;5124037;28;19920;-69
2022/07/27 08:03:20;;;;;;;;;;;20.50;99.90;;;;;;5123763;28;19983;-69
2022/07/27 08:05:47;;;;;;;;;;;20.60;99.90;;;;;;5123740;28;19986;-69
2022/07/27 08:08:13;;;;;;;;;;;20.70;99.90;;;;;;5123688;28;20255;-69
2022/07/27 08:10:40;;;;;;;;;;;20.80;99.90;;;;;;5123498;28;19979;-68
2022/07/27 08:13:07;;;;;;;;;;;20.90;99.90;;;;;;5146001;22;19991;-70
2022/07/27 08:15:35;;;;;;;;;;;21.00;99.90;;;;;;5125399;27;19924;-70
2022/07/27 08:18:02;;;;;;;;;;;21.00;99.90;;;;;;5146664;27;19927;-70
2022/07/27 08:20:29;;;;;;;;;;;21.20;99.90;;;;;;5147691;27;20661;-70
2022/07/27 08:22:55;;;;;;;;;;;21.40;99.90;;;;;;5122006;27;19959;-70
2022/07/27 08:25:22;;;;;;;;;;;21.50;99.90;;;;;;5128619;27;20207;-70
2022/07/27 08:27:49;;;;;;;;;;;21.60;99.90;;;;;;5130121;27;19966;-70
2022/07/27 08:30:15;;;;;;;;;;;21.70;99.90;;;;;;5147982;27;19962;-73
2022/07/27 08:32:48;;;;;;;;;;;21.70;99.90;;;;;;5129720;27;20294;-70
2022/07/27 08:35:15;;;;;;;;;;;21.60;99.90;;;;;;5115003;28;20208;-72
2022/07/27 08:37:42;;;;;;;;;;;21.60;99.90;;;;;;5113893;28;19991;-70
2022/07/27 08:40:09;;;;;;;;;;;21.60;99.90;;;;;;5115089;28;19966;-70
2022/07/27 08:42:36;;;;;;;;;;;21.60;99.90;;;;;;5125945;28;19987;-71
2022/07/27 08:45:04;;;;;;;;;;;21.50;99.90;;;;;;5127255;27;20007;-70
2022/07/27 08:47:31;;;;;;;;;;;21.40;99.90;;;;;;5133073;27;20163;-70
2022/07/27 08:49:59;;;;;;;;;;;21.50;99.90;;;;;;5117531;28;19920;-71
2022/07/27 08:52:26;;;;;;;;;;;21.50;99.90;;;;;;5126327;28;19991;-70
2022/07/27 08:54:53;;;;;;;;;;;21.60;99.90;;;;;;5121600;28;19947;-71
2022/07/27 08:57:19;;;;;;;;;;;21.60;99.90;;;;;;5116562;28;19958;-70
2022/07/27 08:59:46;;;;;;;;;;;21.60;99.90;;;;;;5121787;28;20122;-71
2022/07/27 09:02:13;;;;;;;;;;;21.70;99.90;;;;;;5129144;27;20206;-70
2022/07/27 09:04:40;;;;;;;;;;;21.70;99.90;;;;;;5125611;28;19947;-71
2022/07/27 09:07:08;;;;;;;;;;;21.80;99.90;;;;;;5123718;28;19982;-70
2022/07/27 09:09:43;;;;;;;;;;;21.90;99.90;;;;;;5106013;28;20231;-71
2022/07/27 09:12:10;;;;;;;;;;;21.90;99.90;;;;;;5114725;28;20110;-71
2022/07/27 09:14:39;;;;;;;;;;;21.90;99.90;;;;;;5126106;28;19927;-71
2022/07/27 09:17:23;;;;;;;;;;;22.00;99.90;;;;;;5123813;28;19955;-71
2022/07/27 09:19:54;;;;;;;;;;;22.10;99.90;;;;;;5120001;28;19920;-71
2022/07/27 09:22:37;;;;;;;;;;;22.10;99.90;;;;;;5125090;28;19920;-71
2022/07/27 09:25:04;;;;;;;;;;;22.20;99.90;;;;;;5121625;28;19920;-71
2022/07/27 09:27:31;;;;;;;;;;;22.30;99.90;;;;;;5124712;28;19963;-71
2022/07/27 09:30:01;;;;;;;;;;;22.40;99.90;;;;;;5127139;27;19986;-71
2022/07/27 09:32:27;;;;;;;;;;;22.50;99.90;;;;;;5120038;27;19933;-71
2022/07/27 09:34:54;;;;;;;;;;;22.50;99.90;;;;;;5117811;28;19920;-71
2022/07/27 09:37:23;;;;;;;;;;;22.50;99.90;;;;;;5115270;28;19920;-71
2022/07/27 09:40:09;;;;;;;;;;;22.60;99.90;;;;;;5114327;28;19956;-70
2022/07/27 09:42:35;;;;;;;;;;;22.60;99.90;;;;;;5107303;28;19979;-71
2022/07/27 09:45:02;;;;;;;;;;;22.70;99.90;;;;;;5114342;28;19920;-72
2022/07/27 09:47:30;;;;;;;;;;;22.70;99.90;;;;;;5108706;28;20243;-71
2022/07/27 09:49:57;;;;;;;;;;;22.70;99.90;;;;;;5125073;27;19979;-70
2022/07/27 09:52:25;;;;;;;;;;;22.70;99.90;;;;;;5144182;27;19934;-71
2022/07/27 09:54:53;;;;;;;;;;;22.70;99.90;;;;;;5135682;27;20165;-71
2022/07/27 09:57:20;;;;;;;;;;;22.60;99.90;;;;;;5138148;27;19955;-70
2022/07/27 09:59:47;;;;;;;;;;;22.60;99.90;;;;;;5130023;27;19920;-71
2022/07/27 10:02:14;;;;;;;;;;;22.60;99.90;;;;;;5139008;27;19983;-71
2022/07/27 10:04:41;;;;;;;;;;;22.70;99.90;;;;;;5127097;27;19955;-70
2022/07/27 10:07:07;;;;;;;;;;;22.70;99.90;;;;;;5145756;27;20181;-72
2022/07/27 10:09:34;;;;;;;;;;;22.70;99.90;;;;;;5115019;27;19952;-71
2022/07/27 10:12:03;;;;;;;;;;;22.60;99.90;;;;;;5143140;27;20133;-71
2022/07/27 10:14:30;;;;;;;;;;;22.60;99.90;;;;;;5120476;27;19927;-71
2022/07/27 10:16:57;;;;;;;;;;;22.60;99.90;;;;;;5121336;27;19943;-71
2022/07/27 10:19:27;;;;;;;;;;;22.60;99.90;;;;;;5118773;28;20259;-71
2022/07/27 10:21:53;;;;;;;;;;;22.70;99.90;;;;;;5128583;27;19919;-71
2022/07/27 10:24:24;;;;;;;;;;;22.60;99.90;;;;;;5124292;27;20118;-71
2022/07/27 10:26:51;;;;;;;;;;;22.60;99.90;;;;;;5110617;27;19927;-71
2022/07/27 10:29:20;;;;;;;;;;;22.60;99.90;;;;;;5119255;27;19982;-71
2022/07/27 10:31:56;;;;;;;;;;;22.60;99.90;;;;;;5135071;27;19927;-71
2022/07/27 10:34:32;;;;;;;;;;;22.50;99.90;;;;;;5125766;27;19920;-70
2022/07/27 10:37:08;;;;;;;;;;;22.30;99.90;;;;;;5123687;27;20797;-70
2022/07/27 10:39:36;;;;;;;;;;;22.30;99.90;;;;;;5107645;28;19920;-70
2022/07/27 10:42:21;;;;;;;;;;;22.20;99.90;;;;;;5121755;27;19967;-70
2022/07/27 10:44:56;;;;;;;;;;;22.20;99.90;;;;;;5104262;28;20171;-70
2022/07/27 10:47:43;;;;;;;;;;;22.30;99.90;;;;;;5104105;28;19983;-71
2022/07/27 10:50:24;;;;;;;;;;;22.30;99.90;;;;;;5140995;27;20426;-71
2022/07/27 10:52:51;;;;;;;;;;;22.40;99.90;;;;;;5137455;27;20225;-74
2022/07/27 10:55:43;;;;;;;;;;;22.50;99.90;;;;;;5141379;27;20112;-71
2022/07/27 10:58:28;;;;;;;;;;;22.50;99.90;;;;;;5098843;28;19920;-72
2022/07/27 11:01:00;;;;;;;;;;;22.50;99.90;;;;;;5120782;28;19919;-71
2022/07/27 11:03:29;;;;;;;;;;;22.40;99.90;;;;;;5124302;28;19987;-71
2022/07/27 11:05:56;;;;;;;;;;;22.50;99.90;;;;;;5132394;27;20194;-71
2022/07/27 11:08:24;;;;;;;;;;;22.50;99.90;;;;;;5127917;27;20250;-71
2022/07/27 11:10:51;;;;;;;;;;;22.70;99.90;;;;;;5123204;28;19927;-71
2022/07/27 11:13:18;;;;;;;;;;;22.90;99.90;;;;;;5143367;27;19927;-71
2022/07/27 11:15:50;;;;;;;;;;;23.10;99.90;;;;;;5133496;27;19986;-71
2022/07/27 11:18:18;;;;;;;;;;;23.30;99.90;;;;;;5128207;28;19986;-71
2022/07/27 11:20:44;;;;;;;;;;;23.50;99.90;;;;;;5124457;28;19948;-74
2022/07/27 11:23:17;;;;;;;;;;;23.60;99.90;;;;;;5128157;27;19942;-71
2022/07/27 11:25:56;;;;;;;;;;;23.80;99.90;;;;;;5144247;27;19951;-71
2022/07/27 11:28:27;;;;;;;;;;;24.10;99.90;;;;;;5121020;27;20274;-71
2022/07/27 11:30:54;;;;;;;;;;;24.30;99.90;;;;;;5128297;27;19952;-71
2022/07/27 11:33:22;;;;;;;;;;;24.10;99.90;;;;;;5111870;27;19959;-70
2022/07/27 11:35:52;;;;;;;;;;;24.00;99.90;;;;;;5134908;27;20115;-71
2022/07/27 11:38:19;;;;;;;;;;;24.10;99.90;;;;;;5121281;28;19957;-71
2022/07/27 11:40:47;;;;;;;;;;;24.10;99.90;;;;;;5144128;28;19999;-71
2022/07/27 11:43:13;;;;;;;;;;;24.10;99.90;;;;;;5110537;28;19958;-71
2022/07/27 11:45:41;;;;;;;;;;;24.00;99.90;;;;;;5113035;28;19924;-71
2022/07/27 11:48:09;;;;;;;;;;;23.90;99.90;;;;;;5134093;28;19927;-71
2022/07/27 11:50:37;;;;;;;;;;;24.00;99.90;;;;;;5121800;27;20229;-71
2022/07/27 11:53:05;;;;;;;;;;;24.00;99.90;;;;;;5123735;27;20162;-71
2022/07/27 11:55:32;;;;;;;;;;;24.00;99.90;;;;;;5117365;27;19920;-70
2022/07/27 11:58:02;;;;;;;;;;;24.30;99.90;;;;;;5130397;27;19951;-71
2022/07/27 12:00:39;;;;;;;;;;;24.50;99.90;;;;;;5124126;28;19997;-71
2022/07/27 12:03:06;;;;;;;;;;;24.80;99.90;;;;;;5110131;28;19987;-71
2022/07/27 12:05:33;;;;;;;;;;;25.10;99.90;;;;;;5111191;27;19920;-71
2022/07/27 12:08:02;;;;;;;;;;;25.40;99.90;;;;;;5136457;27;20351;-71
2022/07/27 12:10:29;;;;;;;;;;;25.60;99.90;;;;;;5125891;27;20225;-71
2022/07/27 12:12:56;;;;;;;;;;;25.90;99.90;;;;;;5113868;27;19975;-71
2022/07/27 12:15:22;;;;;;;;;;;26.10;99.90;;;;;;5127315;28;20215;-71
2022/07/27 12:17:54;;;;;;;;;;;26.00;99.90;;;;;;5133936;27;19979;-71
2022/07/27 12:20:23;;;;;;;;;;;25.80;99.90;;;;;;5127907;28;19927;-71
2022/07/27 12:22:50;;;;;;;;;;;25.70;99.90;;;;;;5135359;27;19932;-71
2022/07/27 12:25:28;;;;;;;;;;;25.50;99.90;;;;;;5107062;28;20263;-70
2022/07/27 12:27:56;;;;;;;;;;;25.40;99.90;;;;;;5135648;27;19920;-71
2022/07/27 12:30:28;;;;;;;;;;;25.10;99.90;;;;;;5147614;27;19919;-71
2022/07/27 12:32:55;;;;;;;;;;;25.10;99.90;;;;;;5146987;27;19919;-71
2022/07/27 12:35:23;;;;;;;;;;;25.10;99.90;;;;;;5147432;27;19926;-71
2022/07/27 12:37:57;;;;;;;;;;;25.00;99.90;;;;;;5141522;27;19942;-71
2022/07/27 12:40:25;;;;;;;;;;;25.00;99.90;;;;;;5132152;27;20110;-71
2022/07/27 12:42:56;;;;;;;;;;;24.90;99.90;;;;;;5146678;27;19947;-71
2022/07/27 12:45:23;;;;;;;;;;;24.80;99.90;;;;;;5147460;27;19920;-71
2022/07/27 12:47:49;;;;;;;;;;;24.70;99.90;;;;;;5147228;27;19919;-71
2022/07/27 12:50:17;;;;;;;;;;;24.70;99.90;;;;;;5123045;27;20227;-71
2022/07/27 12:52:46;;;;;;;;;;;24.80;99.90;;;;;;5135572;27;19920;-71
2022/07/27 12:55:13;;;;;;;;;;;24.90;99.90;;;;;;5106503;28;19951;-71
2022/07/27 12:57:41;;;;;;;;;;;25.10;99.90;;;;;;5120070;27;19920;-71
2022/07/27 13:00:09;;;;;;;;;;;25.30;99.90;;;;;;5147574;27;19919;-71
2022/07/27 13:02:36;;;;;;;;;;;25.40;99.90;;;;;;5126396;27;19920;-71
2022/07/27 13:05:03;;;;;;;;;;;25.40;99.90;;;;;;5118433;27;20271;-71
2022/07/27 13:07:30;;;;;;;;;;;25.20;99.90;;;;;;5112840;27;19962;-71
2022/07/27 13:09:57;;;;;;;;;;;25.00;99.90;;;;;;5114393;27;19980;-71
2022/07/27 13:12:23;;;;;;;;;;;24.70;99.90;;;;;;5117051;27;19920;-73
2022/07/27 13:14:51;;;;;;;;;;;24.60;99.90;;;;;;5107629;27;20258;-70
2022/07/27 13:17:18;;;;;;;;;;;24.60;99.90;;;;;;5146775;27;19983;-69
2022/07/27 13:19:45;;;;;;;;;;;24.40;99.90;;;;;;5110155;27;19928;-70
2022/07/27 13:22:12;;;;;;;;;;;24.50;99.90;;;;;;5110180;27;19936;-70
2022/07/27 13:24:38;;;;;;;;;;;24.80;99.90;;;;;;5126127;27;19927;-70
2022/07/27 13:27:05;;;;;;;;;;;25.10;99.90;;;;;;5126400;27;19990;-70
2022/07/27 13:29:31;;;;;;;;;;;25.20;99.90;;;;;;5116860;27;19983;-70
2022/07/27 13:31:59;;;;;;;;;;;25.40;99.90;;;;;;5105421;28;19958;-70
2022/07/27 13:34:26;;;;;;;;;;;25.40;99.90;;;;;;5113659;27;19963;-70
2022/07/27 13:36:53;;;;;;;;;;;25.50;99.80;;;;;;5113903;28;20178;-70
2022/07/27 13:39:20;;;;;;;;;;;25.40;99.20;;;;;;5134660;27;20348;-70
2022/07/27 13:41:50;;;;;;;;;;;25.40;99.40;;;;;;5120575;28;19991;-70
2022/07/27 13:44:17;;;;;;;;;;;25.50;99.40;;;;;;5114488;27;19919;-70
2022/07/27 13:46:44;;;;;;;;;;;25.50;98.90;;;;;;5115521;27;19948;-70
2022/07/27 13:49:12;;;;;;;;;;;25.60;98.80;;;;;;5110638;28;19928;-70
2022/07/27 13:51:39;;;;;;;;;;;25.80;98.70;;;;;;5125609;27;19920;-70
2022/07/27 13:54:05;;;;;;;;;;;26.10;98.90;;;;;;5104850;28;19926;-71
2022/07/27 13:56:33;;;;;;;;;;;26.20;97.80;;;;;;5114807;27;20230;-73
2022/07/27 13:59:00;;;;;;;;;;;26.20;97.80;;;;;;5121628;27;19960;-71
2022/07/27 14:01:27;;;;;;;;;;;26.00;98.10;;;;;;5111859;28;19987;-71
2022/07/27 14:03:54;;;;;;;;;;;26.00;98.40;;;;;;5122124;27;19928;-71
2022/07/27 14:06:22;;;;;;;;;;;26.00;98.30;;;;;;5123402;28;19966;-71
2022/07/27 14:08:48;;;;;;;;;;;25.90;98.00;;;;;;5120585;27;19920;-71
2022/07/27 14:11:15;;;;;;;;;;;25.60;97.50;;;;;;5116649;28;20171;-69
2022/07/27 14:13:42;;;;;;;;;;;25.30;98.00;;;;;;5124391;28;19951;-70
2022/07/27 14:16:09;;;;;;;;;;;25.20;98.50;;;;;;5142379;27;19962;-70
2022/07/27 14:18:36;;;;;;;;;;;24.90;98.30;;;;;;5128467;27;20092;-70
2022/07/27 14:21:04;;;;;;;;;;;24.80;98.40;;;;;;5121439;27;19982;-71